Time;durP1;ratioP1;P1;durP2;ratioP2;P2;SDS_P1;SDS_P2;PMS_P1;PMS_P2;Temp;Humidity;BMP_temperature;BMP_pressure;BME280_temperature;BME280_humidity;BME280_pressure;Samples;Min_cycle;Max_cycle;Signal;HPM_P1;HPM_P2
2021/01/18 00:01:30;;;;;;;4.20;3.17;;;-4.10;82.70;;;;;;4964496;28;20255;-72
2021/01/18 00:03:55;;;;;;;3.30;2.70;;;-4.10;82.70;;;;;;4965799;28;20209;-73
2021/01/18 00:06:22;;;;;;;4.20;2.37;;;-4.10;82.50;;;;;;4965741;28;20278;-73
2021/01/18 00:08:49;;;;;;;4.43;2.93;;;-4.10;82.70;;;;;;4967476;28;20186;-73
2021/01/18 00:11:16;;;;;;;3.70;2.43;;;-4.20;82.70;;;;;;4960544;28;20626;-73
2021/01/18 00:13:44;;;;;;;5.17;3.53;;;-4.10;82.90;;;;;;4954667;28;20220;-73
2021/01/18 00:16:19;;;;;;;3.57;2.97;;;-4.10;82.80;;;;;;4967302;28;21029;-73
2021/01/18 00:18:46;;;;;;;3.40;2.60;;;-4.20;82.90;;;;;;4982849;28;20993;-73
2021/01/18 00:21:12;;;;;;;5.27;3.50;;;-4.10;83.10;;;;;;4969536;28;20180;-73
2021/01/18 00:23:39;;;;;;;2.90;2.70;;;-4.20;83.00;;;;;;4962962;28;20179;-73
2021/01/18 00:26:06;;;;;;;5.10;2.93;;;-4.10;83.00;;;;;;4969189;28;20204;-72
2021/01/18 00:28:32;;;;;;;2.90;2.70;;;-4.10;82.80;;;;;;4955825;28;20752;-73
2021/01/18 00:30:59;;;;;;;3.67;3.40;;;-4.10;82.80;;;;;;4978695;28;20191;-73
2021/01/18 00:33:25;;;;;;;6.57;3.17;;;-4.10;82.80;;;;;;4973747;28;20227;-73
2021/01/18 00:35:51;;;;;;;5.00;3.30;;;-4.10;82.80;;;;;;4976899;28;20188;-73
2021/01/18 00:38:16;;;;;;;6.70;2.93;;;-4.10;82.80;;;;;;4969249;28;20196;-73
2021/01/18 00:40:42;;;;;;;3.90;2.90;;;-4.20;82.90;;;;;;4974820;28;20213;-73
2021/01/18 00:43:08;;;;;;;3.07;2.80;;;-4.20;83.00;;;;;;4965947;28;20184;-72
2021/01/18 00:45:34;;;;;;;6.37;2.97;;;-4.20;83.10;;;;;;4948675;28;20188;-73
2021/01/18 00:47:59;;;;;;;4.07;3.67;;;-4.20;83.10;;;;;;4965815;28;20273;-73
2021/01/18 00:50:27;;;;;;;4.83;2.87;;;-4.20;83.20;;;;;;4963792;28;20637;-72
2021/01/18 00:52:55;;;;;;;3.07;2.90;;;-4.20;83.20;;;;;;4948299;28;20249;-73
2021/01/18 00:55:22;;;;;;;3.27;2.63;;;-4.30;83.40;;;;;;4967982;28;20183;-73
2021/01/18 00:57:49;;;;;;;3.67;2.57;;;-4.30;83.50;;;;;;4956393;28;20195;-72
2021/01/18 01:00:18;;;;;;;3.83;3.17;;;-4.40;84.00;;;;;;4969604;28;20184;-73
2021/01/18 01:02:46;;;;;;;4.83;2.83;;;-4.40;84.00;;;;;;4977904;28;20179;-73
2021/01/18 01:05:17;;;;;;;5.40;3.60;;;-4.40;84.10;;;;;;4986653;28;20275;-73
2021/01/18 01:07:47;;;;;;;6.10;3.60;;;-4.50;84.20;;;;;;4970975;28;20194;-72
2021/01/18 01:10:16;;;;;;;3.07;2.27;;;-4.50;84.60;;;;;;4950990;28;20238;-72
2021/01/18 01:12:41;;;;;;;3.83;3.20;;;-4.60;84.80;;;;;;4967755;28;20202;-72
2021/01/18 01:15:09;;;;;;;5.80;3.33;;;-4.60;84.90;;;;;;4969692;28;20193;-72
2021/01/18 01:17:45;;;;;;;3.70;2.53;;;-4.70;85.30;;;;;;4969389;28;20248;-72
2021/01/18 01:20:15;;;;;;;5.27;2.87;;;-4.70;85.50;;;;;;4969186;28;20186;-73
2021/01/18 01:22:41;;;;;;;5.67;3.40;;;-4.80;85.50;;;;;;4966569;28;20193;-72
2021/01/18 01:25:13;;;;;;;6.60;3.43;;;-4.80;85.50;;;;;;4955679;28;20190;-72
2021/01/18 01:27:40;;;;;;;4.93;2.87;;;-4.80;85.50;;;;;;4968645;28;20206;-72
2021/01/18 01:30:08;;;;;;;3.30;2.73;;;-4.80;85.50;;;;;;4975751;28;20213;-72
2021/01/18 01:32:37;;;;;;;3.83;2.33;;;-4.80;85.80;;;;;;4970276;28;20210;-73
2021/01/18 01:35:05;;;;;;;3.20;2.33;;;-4.80;85.60;;;;;;4981754;28;20647;-72
2021/01/18 01:37:30;;;;;;;4.00;3.70;;;-4.80;85.60;;;;;;4971386;28;20187;-72
2021/01/18 01:39:56;;;;;;;3.53;3.23;;;-4.90;86.00;;;;;;4968800;28;20187;-72
2021/01/18 01:42:23;;;;;;;5.63;3.37;;;-4.90;86.10;;;;;;4968578;28;20800;-72
2021/01/18 01:44:49;;;;;;;3.83;3.47;;;-4.90;86.00;;;;;;4972749;28;20229;-72
2021/01/18 01:47:28;;;;;;;5.63;3.07;;;-4.90;86.10;;;;;;4974255;28;20550;-73
2021/01/18 01:49:56;;;;;;;4.73;3.30;;;-4.90;85.90;;;;;;4955275;28;20195;-73
2021/01/18 01:52:23;;;;;;;3.33;3.07;;;-4.90;85.70;;;;;;4967524;28;20203;-73
2021/01/18 01:55:00;;;;;;;7.40;4.20;;;-5.00;86.30;;;;;;4968455;28;20190;-73
2021/01/18 01:57:26;;;;;;;5.27;3.83;;;-5.00;86.10;;;;;;4968804;28;20186;-73
2021/01/18 01:59:52;;;;;;;5.73;3.30;;;-5.00;86.20;;;;;;4972867;28;20206;-73
2021/01/18 02:02:19;;;;;;;3.47;2.93;;;-5.10;86.30;;;;;;4950738;28;20193;-72
2021/01/18 02:04:47;;;;;;;4.60;3.87;;;-5.10;86.30;;;;;;4970332;28;20245;-72
2021/01/18 02:07:28;;;;;;;5.00;3.47;;;-5.10;86.40;;;;;;4951267;28;20743;-72
2021/01/18 02:09:55;;;;;;;5.73;5.10;;;-5.10;86.70;;;;;;4962795;28;20187;-72
2021/01/18 02:12:22;;;;;;;4.57;3.67;;;-5.10;86.80;;;;;;4967053;28;20268;-72
2021/01/18 02:14:51;;;;;;;10.67;5.03;;;-5.00;86.80;;;;;;4971512;28;20621;-74
2021/01/18 02:17:35;;;;;;;5.13;4.00;;;-5.00;86.60;;;;;;4959544;28;20707;-73
2021/01/18 02:20:38;;;;;;;5.27;3.90;;;-4.90;86.40;;;;;;4968382;28;20206;-72
2021/01/18 02:23:09;;;;;;;9.33;4.57;;;-4.90;85.80;;;;;;4959777;28;20187;-72
2021/01/18 02:25:37;;;;;;;6.77;3.83;;;-4.80;85.60;;;;;;4968403;28;20580;-72
2021/01/18 02:28:02;;;;;;;9.40;3.97;;;-4.70;85.50;;;;;;4951427;28;20193;-72
2021/01/18 02:30:31;;;;;;;3.87;3.27;;;-4.70;85.60;;;;;;4982011;28;20268;-72
2021/01/18 02:33:27;;;;;;;4.07;3.77;;;-4.60;85.60;;;;;;4969814;28;20264;-73
2021/01/18 02:36:16;;;;;;;6.53;2.93;;;-4.60;85.50;;;;;;4978231;28;20186;-72
2021/01/18 02:39:16;;;;;;;4.80;4.37;;;-4.60;85.50;;;;;;4963848;28;20190;-73
2021/01/18 02:41:53;;;;;;;3.87;3.53;;;-4.50;85.40;;;;;;4931316;29;20641;-72
2021/01/18 02:44:22;;;;;;;7.73;3.43;;;-4.40;85.30;;;;;;4927230;29;20231;-72
2021/01/18 02:46:49;;;;;;;9.33;4.73;;;-4.40;85.00;;;;;;4934037;29;20218;-72
2021/01/18 02:49:19;;;;;;;4.23;3.40;;;-4.30;84.70;;;;;;4926702;29;20195;-73
2021/01/18 02:52:02;;;;;;;4.03;3.67;;;-4.40;84.50;;;;;;4926242;29;20193;-72
2021/01/18 02:54:27;;;;;;;3.30;3.10;;;-4.30;84.40;;;;;;4925628;29;20178;-72
2021/01/18 02:56:54;;;;;;;3.70;3.33;;;-4.20;84.40;;;;;;4929332;29;20280;-73
2021/01/18 02:59:20;;;;;;;6.97;3.63;;;-4.20;84.30;;;;;;4908104;29;20173;-73
2021/01/18 03:02:10;;;;;;;4.70;4.07;;;-4.20;84.10;;;;;;4906714;29;20199;-73
2021/01/18 03:05:01;;;;;;;9.77;3.50;;;-4.20;84.00;;;;;;4914956;29;20206;-72
2021/01/18 03:07:44;;;;;;;3.77;2.80;;;-4.20;83.80;;;;;;4923934;29;20191;-72
2021/01/18 03:10:20;;;;;;;3.10;2.77;;;-4.10;83.60;;;;;;4925835;29;20365;-72
2021/01/18 03:13:01;;;;;;;5.50;3.27;;;-4.10;83.60;;;;;;4933428;29;20209;-72
2021/01/18 03:15:36;;;;;;;3.97;2.83;;;-4.10;83.40;;;;;;4928527;29;20180;-73
2021/01/18 03:18:04;;;;;;;3.70;3.33;;;-4.00;83.20;;;;;;4973837;28;20250;-72
2021/01/18 03:20:31;;;;;;;6.13;3.33;;;-4.00;83.40;;;;;;4981948;28;20726;-73
2021/01/18 03:23:07;;;;;;;4.33;3.37;;;-4.00;83.50;;;;;;4966566;28;20199;-72
2021/01/18 03:25:49;;;;;;;3.20;2.77;;;-4.00;83.40;;;;;;4955764;28;20640;-73
2021/01/18 03:28:15;;;;;;;4.40;4.03;;;-3.90;83.40;;;;;;4949848;28;20251;-73
2021/01/18 03:30:41;;;;;;;3.93;3.63;;;-3.90;83.20;;;;;;4967095;28;20196;-73
2021/01/18 03:33:07;;;;;;;9.00;4.50;;;-3.90;83.00;;;;;;4966824;28;20225;-73
2021/01/18 03:35:32;;;;;;;4.70;3.40;;;-3.80;81.90;;;;;;4970393;28;20196;-73
2021/01/18 03:37:59;;;;;;;5.27;4.33;;;-3.80;81.20;;;;;;4960016;28;20293;-73
2021/01/18 03:40:27;;;;;;;4.87;3.47;;;-3.80;80.60;;;;;;4976298;28;20236;-73
2021/01/18 03:43:03;;;;;;;4.10;3.73;;;-3.80;80.10;;;;;;4969702;28;20181;-72
2021/01/18 03:45:33;;;;;;;9.73;4.43;;;-3.90;79.90;;;;;;4967245;28;20167;-72
2021/01/18 03:47:59;;;;;;;4.23;3.27;;;-3.90;79.70;;;;;;4969577;28;20581;-72
2021/01/18 03:50:25;;;;;;;5.37;3.80;;;-3.90;79.40;;;;;;4965252;28;20193;-72
2021/01/18 03:52:52;;;;;;;5.23;3.20;;;-4.00;79.40;;;;;;4966465;28;20798;-73
2021/01/18 03:55:18;;;;;;;8.10;3.47;;;-4.00;79.30;;;;;;4966610;28;20185;-72
2021/01/18 03:57:46;;;;;;;5.20;3.17;;;-4.00;79.00;;;;;;4965269;28;20562;-73
2021/01/18 04:00:13;;;;;;;3.23;2.63;;;-4.10;79.10;;;;;;4974831;28;20192;-73
2021/01/18 04:02:39;;;;;;;6.63;4.50;;;-4.20;79.30;;;;;;4967887;28;20185;-73
2021/01/18 04:05:06;;;;;;;2.93;2.83;;;-4.30;79.40;;;;;;4969510;28;20274;-73
2021/01/18 04:07:32;;;;;;;4.13;3.37;;;-4.30;79.90;;;;;;4976193;28;20190;-73
2021/01/18 04:09:57;;;;;;;6.80;4.53;;;-4.40;80.50;;;;;;4976292;28;20205;-73
2021/01/18 04:12:23;;;;;;;4.30;2.87;;;-4.40;81.30;;;;;;4967487;28;20214;-73
2021/01/18 04:14:51;;;;;;;5.30;4.73;;;-4.40;81.30;;;;;;4964407;28;20189;-72
2021/01/18 04:17:17;;;;;;;10.33;4.00;;;-4.40;81.40;;;;;;4948601;28;20193;-72
2021/01/18 04:19:43;;;;;;;5.50;4.00;;;-4.50;82.10;;;;;;4960818;28;20192;-72
2021/01/18 04:22:09;;;;;;;8.40;4.47;;;-4.50;82.30;;;;;;4969303;28;20188;-72
2021/01/18 04:24:36;;;;;;;6.47;4.83;;;-4.50;82.20;;;;;;4967653;28;20188;-72
2021/01/18 04:27:05;;;;;;;7.00;3.83;;;-4.50;82.10;;;;;;4964857;28;20680;-72
2021/01/18 04:29:31;;;;;;;4.03;3.20;;;-4.50;82.20;;;;;;4955894;28;20645;-74
2021/01/18 04:31:56;;;;;;;8.27;4.63;;;-4.50;82.30;;;;;;4972066;28;20319;-73
2021/01/18 04:34:22;;;;;;;4.83;3.87;;;-4.50;82.30;;;;;;4968731;28;20183;-73
2021/01/18 04:36:48;;;;;;;4.57;3.40;;;-4.60;82.30;;;;;;4969879;28;20573;-73
2021/01/18 04:39:14;;;;;;;6.87;4.03;;;-4.60;82.20;;;;;;4951774;28;20213;-73
2021/01/18 04:41:43;;;;;;;4.77;3.97;;;-4.60;82.00;;;;;;4970072;28;20184;-73
2021/01/18 04:44:11;;;;;;;5.17;3.37;;;-4.60;82.00;;;;;;4952154;28;21106;-73
2021/01/18 04:47:05;;;;;;;6.53;4.43;;;-4.70;81.90;;;;;;4970144;28;20185;-73
2021/01/18 04:49:32;;;;;;;5.90;3.77;;;-4.70;81.90;;;;;;4968006;28;20275;-72
2021/01/18 04:51:58;;;;;;;5.27;3.47;;;-4.80;82.10;;;;;;4969150;28;20203;-72
2021/01/18 04:54:26;;;;;;;6.33;3.87;;;-4.90;82.10;;;;;;4951605;28;20187;-72
2021/01/18 04:57:15;;;;;;;6.37;3.77;;;-4.90;82.20;;;;;;4969506;28;20267;-72
2021/01/18 04:59:46;;;;;;;5.63;3.43;;;-5.00;82.30;;;;;;4975862;28;20242;-72
2021/01/18 05:02:20;;;;;;;7.50;4.40;;;-5.10;82.40;;;;;;4983137;28;20280;-73
2021/01/18 05:04:48;;;;;;;7.10;4.27;;;-5.10;82.40;;;;;;4977300;28;20790;-72
2021/01/18 05:07:35;;;;;;;3.70;2.93;;;-5.10;82.50;;;;;;4972346;28;20576;-73
2021/01/18 05:10:09;;;;;;;4.80;3.50;;;-5.20;83.10;;;;;;4978769;28;20231;-73
2021/01/18 05:12:36;;;;;;;6.17;3.30;;;-5.20;83.40;;;;;;4970363;28;20209;-73
2021/01/18 05:15:07;;;;;;;9.47;5.03;;;-5.20;83.40;;;;;;4969323;28;20184;-73
2021/01/18 05:17:47;;;;;;;5.57;3.53;;;-5.20;83.30;;;;;;4967927;28;20957;-72
2021/01/18 05:20:18;;;;;;;4.60;2.87;;;-5.30;83.20;;;;;;4953520;28;20214;-72
2021/01/18 05:22:52;;;;;;;3.63;3.27;;;-5.30;83.50;;;;;;4972762;28;20187;-72
2021/01/18 05:25:19;;;;;;;4.87;4.13;;;-5.30;83.60;;;;;;4983588;28;20265;-72
2021/01/18 05:28:02;;;;;;;6.30;3.50;;;-5.30;83.60;;;;;;4983326;28;20298;-72
2021/01/18 05:30:29;;;;;;;4.50;2.87;;;-5.30;83.60;;;;;;4970573;28;20236;-73
2021/01/18 05:33:03;;;;;;;4.17;3.80;;;-5.30;83.70;;;;;;4969595;28;20202;-73
2021/01/18 05:35:28;;;;;;;5.30;4.10;;;-5.30;83.80;;;;;;4971675;28;20209;-72
2021/01/18 05:38:00;;;;;;;4.00;3.00;;;-5.20;83.90;;;;;;4952859;28;20670;-72
2021/01/18 05:40:26;;;;;;;4.20;3.80;;;-5.20;84.00;;;;;;4966749;28;20412;-73
2021/01/18 05:42:53;;;;;;;17.50;4.20;;;-5.20;83.80;;;;;;4971368;28;20186;-74
2021/01/18 05:45:33;;;;;;;5.43;3.53;;;-5.10;83.60;;;;;;4972530;28;20581;-73
2021/01/18 05:47:59;;;;;;;4.87;3.03;;;-5.20;83.50;;;;;;4980254;28;20723;-72
2021/01/18 05:50:26;;;;;;;6.17;3.03;;;-5.10;83.50;;;;;;4975928;28;20195;-75
2021/01/18 05:52:52;;;;;;;4.23;2.33;;;-5.00;83.40;;;;;;4968392;28;20210;-74
2021/01/18 05:55:25;;;;;;;3.97;3.43;;;-5.00;83.20;;;;;;4972143;28;20664;-73
2021/01/18 05:57:55;;;;;;;7.20;2.53;;;-5.00;83.20;;;;;;4977442;28;20183;-74
2021/01/18 06:00:29;;;;;;;5.07;2.87;;;-5.00;83.10;;;;;;4969341;28;20188;-74
2021/01/18 06:02:56;;;;;;;3.87;3.00;;;-5.00;82.90;;;;;;4975443;28;20677;-74
2021/01/18 06:05:30;;;;;;;2.80;2.60;;;-5.00;82.80;;;;;;4958043;28;20192;-77
2021/01/18 06:08:17;;;;;;;4.00;2.43;;;-5.00;82.70;;;;;;4951904;28;20214;-77
2021/01/18 06:10:47;;;;;;;5.17;2.30;;;-5.00;82.70;;;;;;4956314;28;20186;-74
2021/01/18 06:13:27;;;;;;;5.90;2.67;;;-4.90;82.30;;;;;;4967579;28;20206;-74
2021/01/18 06:16:12;;;;;;;5.33;3.17;;;-5.00;82.30;;;;;;4967928;28;20188;-74
2021/01/18 06:18:42;;;;;;;6.63;2.63;;;-5.00;82.10;;;;;;4971133;28;20175;-75
2021/01/18 06:21:09;;;;;;;5.20;3.20;;;-4.90;81.80;;;;;;4972138;28;20222;-75
2021/01/18 06:23:36;;;;;;;4.10;2.73;;;-5.00;81.40;;;;;;4972013;28;20756;-75
2021/01/18 06:26:02;;;;;;;4.37;2.83;;;-5.00;81.50;;;;;;4974698;28;20189;-75
2021/01/18 06:28:29;;;;;;;3.53;2.73;;;-4.90;81.30;;;;;;4980901;28;20209;-76
2021/01/18 06:30:56;;;;;;;2.83;2.30;;;-4.90;81.10;;;;;;4965398;28;21053;-76
2021/01/18 06:33:35;;;;;;;3.73;2.53;;;-4.90;80.80;;;;;;4952119;28;20222;-74
2021/01/18 06:36:20;;;;;;;6.83;2.80;;;-4.90;80.90;;;;;;4976467;28;20948;-74
2021/01/18 06:38:58;;;;;;;2.80;2.57;;;-4.80;80.90;;;;;;4976500;28;20246;-81
2021/01/18 06:41:29;;;;;;;3.27;2.63;;;-4.80;80.90;;;;;;4963839;28;20222;-77
2021/01/18 06:43:55;;;;;;;6.27;2.97;;;-4.80;80.60;;;;;;4964211;28;20186;-75
2021/01/18 06:46:24;;;;;;;2.20;2.00;;;-4.70;80.10;;;;;;4979568;28;20192;-76
2021/01/18 06:48:51;;;;;;;2.93;2.73;;;-4.60;80.10;;;;;;4973670;28;20265;-78
2021/01/18 06:51:23;;;;;;;2.90;2.70;;;-4.50;80.10;;;;;;4970422;28;20587;-74
2021/01/18 06:53:50;;;;;;;2.67;2.47;;;-4.40;78.40;;;;;;4967886;28;20206;-76
2021/01/18 06:56:22;;;;;;;6.17;3.87;;;-4.30;78.30;;;;;;4951325;28;20249;-74
2021/01/18 06:59:18;;;;;;;3.10;2.87;;;-4.00;78.40;;;;;;4987163;28;20192;-78
2021/01/18 07:01:48;;;;;;;7.00;3.53;;;-3.70;78.40;;;;;;4988025;28;20668;-75
2021/01/18 07:04:17;;;;;;;2.00;1.93;;;-3.50;77.40;;;;;;4987476;28;20627;-76
2021/01/18 07:06:57;;;;;;;3.10;2.70;;;-3.30;76.70;;;;;;4987753;28;20205;-76
2021/01/18 07:09:25;;;;;;;4.20;3.90;;;-3.00;76.00;;;;;;4959075;28;20182;-75
2021/01/18 07:12:02;;;;;;;5.00;3.43;;;-2.70;75.20;;;;;;4979290;28;20753;-76
2021/01/18 07:14:30;;;;;;;4.13;3.67;;;-2.50;74.10;;;;;;4987092;28;20192;-75
2021/01/18 07:17:04;;;;;;;4.30;3.07;;;-2.20;73.20;;;;;;4987254;28;20197;-76
2021/01/18 07:19:36;;;;;;;6.17;3.57;;;-1.90;72.90;;;;;;4987407;28;20153;-76
2021/01/18 07:22:23;;;;;;;3.50;3.03;;;-1.70;72.10;;;;;;4987057;28;20169;-76
2021/01/18 07:24:58;;;;;;;3.33;3.13;;;-1.50;70.40;;;;;;4986615;28;20162;-76
2021/01/18 07:27:25;;;;;;;3.50;2.97;;;-1.30;70.30;;;;;;4986953;28;20586;-75
2021/01/18 07:29:51;;;;;;;7.07;3.80;;;-1.20;69.10;;;;;;4986348;28;20252;-76
2021/01/18 07:32:17;;;;;;;4.17;3.20;;;-1.10;68.80;;;;;;4986622;28;20205;-75
2021/01/18 07:34:44;;;;;;;6.73;4.27;;;-0.80;68.50;;;;;;4986609;28;20174;-75
2021/01/18 07:37:11;;;;;;;9.57;4.13;;;-0.70;68.00;;;;;;4986592;28;20176;-75
2021/01/18 07:39:38;;;;;;;5.07;4.43;;;-0.60;67.40;;;;;;4971165;28;20182;-75
2021/01/18 07:42:05;;;;;;;8.83;4.63;;;-0.80;66.50;;;;;;4958631;28;20454;-75
2021/01/18 07:44:41;;;;;;;5.57;3.97;;;-1.00;66.80;;;;;;4955442;28;20191;-75
2021/01/18 07:47:09;;;;;;;3.73;3.43;;;-1.10;66.80;;;;;;4947598;29;20158;-75
2021/01/18 07:49:37;;;;;;;3.60;2.93;;;-1.20;66.70;;;;;;4962763;28;20374;-75
2021/01/18 07:52:24;;;;;;;5.03;3.07;;;-1.50;66.60;;;;;;4958572;28;21052;-76
2021/01/18 07:54:50;;;;;;;3.03;2.80;;;-1.80;66.80;;;;;;4942169;28;20184;-75
2021/01/18 07:57:29;;;;;;;6.47;3.43;;;-2.20;67.10;;;;;;4954718;28;20222;-75
2021/01/18 08:00:20;;;;;;;2.90;2.13;;;-2.60;68.30;;;;;;4947754;29;20827;-75
2021/01/18 08:02:56;;;;;;;3.00;2.70;;;-2.60;69.20;;;;;;4958597;28;20769;-76
2021/01/18 08:05:35;;;;;;;2.53;2.33;;;-2.70;69.40;;;;;;4942202;28;20249;-76
2021/01/18 08:08:07;;;;;;;7.53;3.40;;;-2.80;69.40;;;;;;4956092;28;20182;-76
2021/01/18 08:11:03;;;;;;;10.87;5.23;;;-2.90;69.60;;;;;;4951137;29;20723;-77
2021/01/18 08:13:41;;;;;;;3.83;2.77;;;-2.90;69.60;;;;;;4969083;28;20225;-77
2021/01/18 08:16:14;;;;;;;4.93;4.00;;;-3.00;69.30;;;;;;4952087;29;20595;-76
2021/01/18 08:19:05;;;;;;;8.30;4.80;;;-3.10;69.30;;;;;;4953995;28;20211;-76
2021/01/18 08:21:39;;;;;;;6.97;5.43;;;-3.20;69.70;;;;;;4968425;28;20260;-76
2021/01/18 08:24:31;;;;;;;2.33;2.13;;;-3.10;70.00;;;;;;4951312;29;20318;-77
2021/01/18 08:27:07;;;;;;;4.90;2.27;;;-3.10;69.90;;;;;;4896701;29;20196;-77
2021/01/18 08:29:52;;;;;;;4.40;3.20;;;-3.20;70.00;;;;;;4915353;29;20212;-78
2021/01/18 08:32:35;;;;;;;1.93;1.80;;;-3.10;70.80;;;;;;4929269;29;20883;-77
2021/01/18 08:35:06;;;;;;;3.20;1.93;;;-3.10;69.40;;;;;;4923561;29;20299;-77
2021/01/18 08:37:50;;;;;;;2.60;1.63;;;-3.00;68.70;;;;;;4911447;29;20192;-77
2021/01/18 08:40:16;;;;;;;3.43;2.17;;;-2.50;69.10;;;;;;4911905;29;20829;-77
2021/01/18 08:42:44;;;;;;;1.83;1.73;;;-1.90;68.20;;;;;;4914746;29;20188;-77
2021/01/18 08:45:23;;;;;;;3.23;2.33;;;-1.40;66.90;;;;;;4931170;29;20270;-77
2021/01/18 08:47:58;;;;;;;2.50;2.13;;;-1.00;66.00;;;;;;4915149;29;20266;-77
2021/01/18 08:50:31;;;;;;;2.33;1.80;;;-0.60;64.40;;;;;;4931227;29;20199;-78
2021/01/18 08:53:01;;;;;;;2.60;2.40;;;-0.50;63.30;;;;;;4931051;29;20215;-77
2021/01/18 08:55:29;;;;;;;3.37;2.20;;;-0.20;63.10;;;;;;4915048;29;20593;-77
2021/01/18 08:57:57;;;;;;;2.20;1.80;;;0.20;62.50;;;;;;4914723;29;20727;-78
2021/01/18 09:00:23;;;;;;;3.67;2.67;;;0.40;61.50;;;;;;4929151;29;20187;-78
2021/01/18 09:02:49;;;;;;;3.47;2.70;;;0.70;61.20;;;;;;4932204;29;20210;-77
2021/01/18 09:05:22;;;;;;;3.00;2.20;;;1.10;61.30;;;;;;4966021;28;20241;-76
2021/01/18 09:07:49;;;;;;;1.83;1.70;;;1.40;59.60;;;;;;4952972;28;20190;-76
2021/01/18 09:10:20;;;;;;;3.67;1.90;;;1.70;59.80;;;;;;4965862;28;20190;-76
2021/01/18 09:12:47;;;;;;;3.77;2.93;;;2.10;59.00;;;;;;4981242;28;20357;-77
2021/01/18 09:15:14;;;;;;;2.97;2.70;;;2.60;58.30;;;;;;4968345;28;21001;-77
2021/01/18 09:17:40;;;;;;;3.20;2.53;;;3.10;57.70;;;;;;4954681;28;20187;-77
2021/01/18 09:20:08;;;;;;;2.57;2.37;;;3.80;57.70;;;;;;4970702;28;20182;-77
2021/01/18 09:22:40;;;;;;;6.47;3.43;;;4.60;56.40;;;;;;4963969;28;20683;-77
2021/01/18 09:25:07;;;;;;;2.83;2.63;;;5.00;55.40;;;;;;4974593;28;20198;-75
2021/01/18 09:27:34;;;;;;;5.80;3.83;;;5.20;55.30;;;;;;4967931;28;20558;-77
2021/01/18 09:30:17;;;;;;;5.50;3.73;;;5.30;55.00;;;;;;4978052;28;20774;-77
2021/01/18 09:33:02;;;;;;;6.03;3.93;;;5.10;54.70;;;;;;4960321;28;20256;-77
2021/01/18 09:35:30;;;;;;;3.40;3.10;;;4.90;55.70;;;;;;4953929;28;20189;-77
2021/01/18 09:37:56;;;;;;;3.00;2.80;;;4.90;55.70;;;;;;4975880;28;20205;-77
2021/01/18 09:40:22;;;;;;;3.47;3.20;;;5.00;55.30;;;;;;4967323;28;20186;-78
2021/01/18 09:42:52;;;;;;;4.27;3.20;;;4.90;54.30;;;;;;4944397;29;20187;-78
2021/01/18 09:45:18;;;;;;;4.03;3.23;;;4.60;54.90;;;;;;4964939;28;20183;-78
2021/01/18 09:47:43;;;;;;;4.33;3.27;;;4.80;54.90;;;;;;4969637;28;20205;-77
2021/01/18 09:50:13;;;;;;;3.87;3.57;;;5.10;54.90;;;;;;4933950;28;20856;-76
2021/01/18 09:52:44;;;;;;;4.43;3.57;;;4.90;53.30;;;;;;4964959;28;20207;-77
2021/01/18 09:55:23;;;;;;;3.63;3.43;;;4.80;54.00;;;;;;4962714;28;20185;-77
2021/01/18 09:58:04;;;;;;;3.53;3.23;;;5.10;54.70;;;;;;4965117;28;20209;-77
2021/01/18 10:00:38;;;;;;;2.87;2.63;;;5.70;54.40;;;;;;4956987;28;20181;-77
2021/01/18 10:03:04;;;;;;;3.50;3.20;;;6.30;52.90;;;;;;4957825;28;20214;-77
2021/01/18 10:05:32;;;;;;;3.50;3.20;;;6.70;52.00;;;;;;4964457;28;20269;-77
2021/01/18 10:08:00;;;;;;;3.37;2.87;;;6.70;51.20;;;;;;4967254;28;20186;-76
2021/01/18 10:10:26;;;;;;;3.67;3.10;;;7.00;51.70;;;;;;4938115;28;21016;-76
2021/01/18 10:12:54;;;;;;;2.90;2.80;;;7.30;51.10;;;;;;4958490;28;20207;-76
2021/01/18 10:15:29;;;;;;;3.03;2.83;;;7.50;50.20;;;;;;4962619;28;20678;-74
2021/01/18 10:17:55;;;;;;;3.80;3.07;;;7.40;49.90;;;;;;4954678;28;20182;-76
2021/01/18 10:20:28;;;;;;;3.73;2.97;;;7.20;49.50;;;;;;4956975;28;21011;-76
2021/01/18 10:22:54;;;;;;;4.90;3.13;;;7.40;50.80;;;;;;4932904;28;20183;-75
2021/01/18 10:25:20;;;;;;;4.13;2.83;;;7.70;51.40;;;;;;4954846;28;20250;-75
2021/01/18 10:27:54;;;;;;;2.67;2.47;;;7.80;49.40;;;;;;4949104;28;20627;-76
2021/01/18 10:30:22;;;;;;;5.03;3.13;;;7.60;50.40;;;;;;4948967;28;20206;-76
2021/01/18 10:32:50;;;;;;;2.50;2.30;;;7.50;49.50;;;;;;4948741;28;20277;-76
2021/01/18 10:35:32;;;;;;;2.30;2.10;;;7.50;50.10;;;;;;4954461;28;20183;-75
2021/01/18 10:38:36;;;;;;;2.70;2.47;;;7.50;49.10;;;;;;4967077;28;20190;-75
2021/01/18 10:41:06;;;;;;;1.97;1.83;;;7.40;49.30;;;;;;4910659;29;20649;-75
2021/01/18 10:43:31;;;;;;;3.60;2.93;;;7.30;49.20;;;;;;4910421;29;20195;-76
2021/01/18 10:45:59;;;;;;;2.53;2.33;;;7.00;49.90;;;;;;4926376;29;20202;-75
2021/01/18 10:48:30;;;;;;;2.83;2.57;;;6.50;49.80;;;;;;4926867;29;20225;-76
2021/01/18 10:50:58;;;;;;;3.07;2.77;;;5.70;50.10;;;;;;4917173;29;20649;-75
2021/01/18 10:53:28;;;;;;;3.67;3.13;;;5.50;51.00;;;;;;4931661;29;20781;-74
2021/01/18 10:56:10;;;;;;;3.03;2.23;;;5.20;51.60;;;;;;4926283;29;21079;-74
2021/01/18 10:58:36;;;;;;;2.43;2.30;;;4.70;52.30;;;;;;4925806;29;20188;-74
2021/01/18 11:01:13;;;;;;;2.73;2.53;;;4.60;53.40;;;;;;4926487;29;20259;-75
2021/01/18 11:03:42;;;;;;;2.40;2.20;;;5.00;53.30;;;;;;4926343;29;20971;-74
2021/01/18 11:06:19;;;;;;;3.20;3.00;;;5.00;52.70;;;;;;4931285;29;20200;-74
2021/01/18 11:08:49;;;;;;;3.80;3.20;;;5.20;52.70;;;;;;4937809;29;20183;-74
2021/01/18 11:11:19;;;;;;;3.60;2.87;;;5.70;53.30;;;;;;4927338;29;20208;-74
2021/01/18 11:13:45;;;;;;;3.40;3.03;;;5.90;51.50;;;;;;4930553;29;20226;-74
2021/01/18 11:16:13;;;;;;;5.50;3.57;;;6.30;52.00;;;;;;4942801;28;20268;-73
2021/01/18 11:18:39;;;;;;;4.20;3.87;;;6.80;51.40;;;;;;4970935;28;20189;-74
2021/01/18 11:21:05;;;;;;;3.97;3.60;;;7.10;50.80;;;;;;4972683;28;20178;-74
2021/01/18 11:23:31;;;;;;;4.70;4.27;;;7.30;50.30;;;;;;4966757;28;20190;-74
2021/01/18 11:25:56;;;;;;;6.90;4.70;;;7.20;49.90;;;;;;4948895;28;21831;-74
2021/01/18 11:28:22;;;;;;;4.53;4.13;;;7.20;51.00;;;;;;4964807;28;20189;-74
2021/01/18 11:30:48;;;;;;;4.73;4.13;;;7.50;50.70;;;;;;4965245;28;20626;-75
2021/01/18 11:33:14;;;;;;;6.27;4.13;;;8.00;50.20;;;;;;4947826;28;20684;-74
2021/01/18 11:35:42;;;;;;;3.13;2.87;;;8.40;49.10;;;;;;4965324;28;20185;-74
2021/01/18 11:38:13;;;;;;;4.33;3.97;;;8.50;49.40;;;;;;4947285;28;20198;-74
2021/01/18 11:40:39;;;;;;;3.20;3.00;;;8.80;49.00;;;;;;4947303;28;20227;-74
2021/01/18 11:43:04;;;;;;;5.90;3.60;;;9.10;49.00;;;;;;4930337;29;20190;-74
2021/01/18 11:45:30;;;;;;;4.93;3.57;;;9.00;47.90;;;;;;4947518;28;20193;-74
2021/01/18 11:47:56;;;;;;;4.20;3.80;;;9.00;48.50;;;;;;4962938;28;20243;-74
2021/01/18 11:50:22;;;;;;;3.80;3.50;;;9.10;47.70;;;;;;4956386;28;20202;-73
2021/01/18 11:52:54;;;;;;;4.33;3.47;;;8.40;47.70;;;;;;4965936;28;20210;-73
2021/01/18 11:55:20;;;;;;;4.43;3.70;;;8.00;48.30;;;;;;4966769;28;20190;-74
2021/01/18 11:57:50;;;;;;;4.40;4.00;;;7.70;48.30;;;;;;4948669;28;21058;-73
2021/01/18 12:00:24;;;;;;;4.27;3.87;;;7.40;49.10;;;;;;4961597;28;20641;-74
2021/01/18 12:02:58;;;;;;;4.30;3.90;;;7.20;49.60;;;;;;4954256;28;20812;-73
2021/01/18 12:05:25;;;;;;;5.87;3.73;;;6.90;50.50;;;;;;4960664;28;20190;-73
2021/01/18 12:07:55;;;;;;;4.10;3.70;;;7.10;50.30;;;;;;4962024;28;20191;-74
2021/01/18 12:10:22;;;;;;;3.87;3.50;;;7.10;49.60;;;;;;4948549;28;20186;-77
2021/01/18 12:12:49;;;;;;;3.73;3.27;;;6.80;50.40;;;;;;4939243;29;20207;-74
2021/01/18 12:15:16;;;;;;;4.70;3.43;;;6.90;50.90;;;;;;4959552;28;20174;-74
2021/01/18 12:17:42;;;;;;;4.20;3.77;;;7.10;50.90;;;;;;4965086;28;20187;-73
2021/01/18 12:20:11;;;;;;;4.13;3.67;;;7.30;50.10;;;;;;4970841;28;20215;-73
2021/01/18 12:22:37;;;;;;;3.80;3.53;;;7.30;49.80;;;;;;4975666;28;20294;-75
2021/01/18 12:25:04;;;;;;;3.77;3.40;;;7.30;49.80;;;;;;4955501;28;20190;-73
2021/01/18 12:27:30;;;;;;;4.10;3.80;;;7.20;50.40;;;;;;4966406;28;20179;-75
2021/01/18 12:29:55;;;;;;;5.23;4.27;;;7.10;50.40;;;;;;4961222;28;20209;-73
2021/01/18 12:32:21;;;;;;;4.67;4.27;;;7.10;50.30;;;;;;4966161;28;20241;-74
2021/01/18 12:34:47;;;;;;;6.10;4.37;;;7.00;50.30;;;;;;4965296;28;20659;-74
2021/01/18 12:37:12;;;;;;;6.30;4.20;;;7.00;50.70;;;;;;4975634;28;20186;-73
2021/01/18 12:39:38;;;;;;;4.67;4.23;;;6.90;50.40;;;;;;4969038;28;20190;-74
2021/01/18 12:42:05;;;;;;;7.33;5.43;;;6.90;50.70;;;;;;4949968;28;20597;-74
2021/01/18 12:44:31;;;;;;;6.37;5.23;;;7.00;50.80;;;;;;4972261;28;20184;-73
2021/01/18 12:47:01;;;;;;;6.10;4.77;;;6.60;50.50;;;;;;4964318;28;20664;-75
2021/01/18 12:49:27;;;;;;;5.97;4.47;;;6.60;51.90;;;;;;4950140;28;20713;-76
2021/01/18 12:51:53;;;;;;;7.07;4.83;;;6.60;51.40;;;;;;4956907;28;20186;-74
2021/01/18 12:54:18;;;;;;;6.27;5.20;;;6.50;50.90;;;;;;4948282;28;20281;-73
2021/01/18 12:56:44;;;;;;;6.43;4.53;;;6.50;51.20;;;;;;4960760;28;20626;-73
2021/01/18 12:59:10;;;;;;;5.30;4.77;;;6.50;51.00;;;;;;4955390;28;20194;-73
2021/01/18 13:01:36;;;;;;;5.27;4.63;;;6.40;51.20;;;;;;4975415;28;20178;-73
2021/01/18 13:04:04;;;;;;;6.03;4.60;;;6.30;51.30;;;;;;4953176;28;20241;-74
2021/01/18 13:06:38;;;;;;;4.27;3.97;;;6.20;51.70;;;;;;4964181;28;20198;-72
2021/01/18 13:09:05;;;;;;;4.07;3.70;;;6.10;52.00;;;;;;4965795;28;20184;-73